Aeroporto :
LOGIN :

Iscrizione | Disclaimer

   EN    FR    IT 

 










Sommario :    VFR   VFR Marginale   IFR   IFR Intensivo   IFR Molto Intensivo
Visibilità : 
Base nubi : 
>= 8 km
>= 3000ft
5 / 8 km
1000 / 3000 ft
1500m / 5 km
500 / 1000 ft
800 / 1500m
200 / 500 ft
< 800m
< 200 ft
Simboli :   Temporali  Nebbia  Neve Forte  Precipitazioni Forti  Vento > 20 kt
SIGMETs :   Varie  Temporali  Ghiacco  Turbolenza  Onda orograficha  Ceneri Vulcaniche






- Altitudine del aeroporto : 13 ft
- Codice IATA : SNR


LFRZ - St-Nazaire

ULTIMO METAR :
  • 151730Z AUTO 29006KT 240V340 9999 BKN044 BKN056 07/04 Q1002 TEMPO 4000 -RA BKN012

METARs OBSOLETI :
  • 151700Z AUTO 30007KT 260V340 CAVOK 07/04 Q1002 TEMPO 4000 -RA BKN012
  • 151630Z AUTO 29008KT 270V330 CAVOK 08/04 Q1002 TEMPO 4000 -RA BKN012
  • 151600Z AUTO 31006KT 270V350 CAVOK 09/04 Q1002 NOSIG
  • 151530Z AUTO 32008KT 260V360 CAVOK 09/05 Q1002 NOSIG
  • 151500Z AUTO 31007KT 270V360 9999 FEW042 BKN060 09/05 Q1002 NOSIG

TAF TAF LFRZ
Valido dal 15 a 18 ore il 16 a 18 ore UTC


151700Z 1518/1618 28005KT 9999 NSC
TEMPO 1518/1610 4000 -RA BKN012
PROB40
TEMPO 1612/1618 -SHRA SCT030TCU



MetMap, La meteo Aeronautica in un colpo d'occhio ! - Copyright ORBIFLY Dicembre 2007 - Disclaimer

ORBIFLY MET'MAP TEAM :

Programmazione e sviluppo : Alexandra Zaïnal
Concezione e sviluppo : Baudouin d'Aumeries
Co-Programmazione e sviluppo : Marc-Olivier Méhu
Supporto tecnico e logistico : Manuel Goepfert
Aiuto per la traduzione : Arnaldo La Scala

Contatto : metmap@orbifly.com




FONTI E CREDITI :

   NOAA